createdAt,value
2023-04-02T00:02:23.584Z,26.10
2023-04-02T00:05:18.616Z,24.90
2023-04-02T00:07:53.145Z,22.00
2023-04-02T00:10:28.597Z,25.10
2023-04-02T00:13:12.824Z,29.30
2023-04-02T00:15:44.003Z,26.10
2023-04-02T00:18:16.795Z,25.10
2023-04-02T00:20:50.336Z,21.20
2023-04-02T00:23:19.074Z,23.10
2023-04-02T00:25:48.344Z,25.70
2023-04-02T00:28:21.097Z,24.00
2023-04-02T00:30:56.699Z,24.50
2023-04-02T00:33:30.409Z,25.30
2023-04-02T00:35:58.484Z,29.00
2023-04-02T00:38:35.105Z,23.60
2023-04-02T00:41:04.447Z,25.90
2023-04-02T00:43:36.091Z,23.10
2023-04-02T00:46:11.176Z,23.70
2023-04-02T00:49:04.306Z,24.40
2023-04-02T00:51:42.764Z,20.10
2023-04-02T00:54:15.833Z,23.30
2023-04-02T00:56:46.482Z,22.60
2023-04-02T00:59:35.994Z,21.90
2023-04-02T01:02:19.220Z,22.80
2023-04-02T01:04:54.520Z,21.70
2023-04-02T01:07:30.300Z,21.80
2023-04-02T01:10:08.348Z,23.50
2023-04-02T01:12:43.976Z,20.40
2023-04-02T01:15:30.618Z,18.80
2023-04-02T01:18:04.831Z,19.30
2023-04-02T01:20:56.815Z,18.50
2023-04-02T01:23:34.791Z,20.00
2023-04-02T01:26:19.649Z,18.20
2023-04-02T01:29:26.202Z,19.10
2023-04-02T01:31:55.997Z,16.70
2023-04-02T01:34:27.362Z,17.80
2023-04-02T01:37:25.536Z,16.90
2023-04-02T01:39:56.842Z,19.90
2023-04-02T01:42:33.419Z,18.00
2023-04-02T01:45:21.940Z,19.00
2023-04-02T01:47:51.301Z,16.10
2023-04-02T01:50:19.276Z,18.30
2023-04-02T01:52:49.778Z,19.90
2023-04-02T01:55:21.231Z,18.80
2023-04-02T01:57:53.416Z,19.00
2023-04-02T02:00:23.821Z,22.00
2023-04-02T02:02:52.480Z,20.10
2023-04-02T02:05:23.007Z,19.30
2023-04-02T02:07:53.811Z,25.30
2023-04-02T02:10:28.063Z,24.60
2023-04-02T02:15:24.743Z,18.40
2023-04-02T02:18:01.019Z,26.70
2023-04-02T02:20:29.730Z,19.30
2023-04-02T02:23:02.694Z,22.20
2023-04-02T02:25:33.360Z,17.10
2023-04-02T02:28:14.224Z,19.50
2023-04-02T02:31:08.214Z,22.00
2023-04-02T02:33:42.381Z,21.30
2023-04-02T02:38:50.678Z,21.70
2023-04-02T02:41:35.750Z,19.00
2023-04-02T02:44:09.932Z,20.80
2023-04-02T02:47:00.361Z,20.80
2023-04-02T02:49:31.757Z,17.50
2023-04-02T02:52:09.170Z,21.40
2023-04-02T02:54:45.727Z,25.00
2023-04-02T02:57:18.004Z,18.00
2023-04-02T03:02:17.664Z,18.90
2023-04-02T03:04:49.919Z,20.40
2023-04-02T03:07:19.338Z,21.10
2023-04-02T03:10:12.741Z,17.30
2023-04-02T03:12:49.954Z,20.70
2023-04-02T03:15:56.065Z,20.70
2023-04-02T03:18:42.127Z,23.90
2023-04-02T03:21:14.104Z,18.60
2023-04-02T03:23:46.176Z,19.00
2023-04-02T03:26:18.782Z,18.80
2023-04-02T03:28:51.214Z,17.10
2023-04-02T03:31:24.891Z,23.50
2023-04-02T03:34:01.543Z,17.40
2023-04-02T03:36:34.394Z,17.80
2023-04-02T03:39:13.665Z,17.40
2023-04-02T03:41:49.567Z,17.70
2023-04-02T03:44:24.297Z,15.90
2023-04-02T03:46:58.102Z,17.30
2023-04-02T03:49:35.478Z,17.30
2023-04-02T03:52:26.814Z,18.90
2023-04-02T03:54:56.386Z,17.60
2023-04-02T03:57:49.714Z,15.00
2023-04-02T04:00:27.290Z,17.60
2023-04-02T04:03:16.970Z,18.00
2023-04-02T04:06:03.038Z,17.40
2023-04-02T04:08:38.223Z,19.10
2023-04-02T04:11:09.809Z,14.60
2023-04-02T04:13:48.841Z,16.80
2023-04-02T04:16:20.746Z,16.50
2023-04-02T04:19:05.186Z,16.30
2023-04-02T04:21:40.087Z,16.90
2023-04-02T04:24:23.819Z,16.10
2023-04-02T04:27:05.865Z,15.20
2023-04-02T04:30:06.249Z,16.30
2023-04-02T04:32:39.293Z,19.20
2023-04-02T04:35:27.771Z,17.50
2023-04-02T04:37:59.057Z,20.90
2023-04-02T04:40:34.209Z,18.20
2023-04-02T04:43:05.288Z,15.30
2023-04-02T04:45:46.140Z,18.00
2023-04-02T04:48:24.059Z,18.70
2023-04-02T04:50:54.887Z,19.50
2023-04-02T04:53:28.346Z,18.80
2023-04-02T04:56:16.083Z,17.70
2023-04-02T04:58:53.260Z,18.90
2023-04-02T05:01:38.477Z,17.80
2023-04-02T05:04:19.044Z,17.40
2023-04-02T05:06:53.186Z,19.40
2023-04-02T05:09:42.293Z,16.00
2023-04-02T05:12:21.818Z,18.70
2023-04-02T05:15:12.069Z,18.40
2023-04-02T05:18:19.243Z,15.50
2023-04-02T05:21:14.475Z,19.90
2023-04-02T05:23:56.127Z,24.20
2023-04-02T05:26:28.502Z,17.30
2023-04-02T05:29:01.159Z,18.10
2023-04-02T05:32:07.820Z,17.10
2023-04-02T05:34:37.582Z,15.50
2023-04-02T05:37:07.230Z,17.40
2023-04-02T05:39:37.071Z,14.60
2023-04-02T05:42:06.620Z,18.10
2023-04-02T05:45:16.256Z,19.30
2023-04-02T05:47:47.199Z,14.60
2023-04-02T05:50:26.278Z,16.70
2023-04-02T05:53:04.074Z,17.10
2023-04-02T05:55:43.506Z,19.10
2023-04-02T05:58:34.596Z,18.40
2023-04-02T06:01:15.547Z,18.70
2023-04-02T06:03:59.319Z,18.30
2023-04-02T06:06:47.441Z,18.00
2023-04-02T06:09:24.486Z,19.70
2023-04-02T06:12:17.590Z,17.30
2023-04-02T06:14:46.479Z,16.60
2023-04-02T06:17:16.709Z,17.00
2023-04-02T06:19:46.090Z,21.90
2023-04-02T06:22:39.779Z,20.30
2023-04-02T06:25:21.625Z,17.70
2023-04-02T06:27:50.764Z,19.70
2023-04-02T06:30:32.871Z,17.40
2023-04-02T06:33:05.510Z,17.80
2023-04-02T06:35:36.110Z,19.20
2023-04-02T06:38:07.956Z,19.60
2023-04-02T06:40:46.567Z,17.70
2023-04-02T06:43:38.625Z,19.60
2023-04-02T06:46:43.040Z,16.00
2023-04-02T06:49:44.855Z,17.50
2023-04-02T06:52:21.257Z,16.20
2023-04-02T06:54:52.014Z,15.70
2023-04-02T06:57:21.535Z,14.20
2023-04-02T06:59:51.320Z,15.30
2023-04-02T07:02:35.064Z,15.30
2023-04-02T07:05:09.286Z,16.50
2023-04-02T07:07:39.852Z,15.60
2023-04-02T07:10:11.741Z,17.10
2023-04-02T07:12:39.988Z,18.10
2023-04-02T07:15:21.617Z,17.00
2023-04-02T07:17:50.005Z,15.50
2023-04-02T07:20:37.587Z,14.70
2023-04-02T07:23:09.266Z,15.60
2023-04-02T07:25:37.419Z,13.80
2023-04-02T07:28:06.353Z,19.20
2023-04-02T07:30:34.505Z,16.10
2023-04-02T07:33:02.964Z,18.50
2023-04-02T07:35:31.103Z,14.80
2023-04-02T07:38:02.475Z,15.70
2023-04-02T07:40:30.855Z,12.50
2023-04-02T07:42:58.983Z,16.50
2023-04-02T07:45:27.596Z,15.20
2023-04-02T07:47:56.712Z,14.10
2023-04-02T07:50:24.785Z,14.30
2023-04-02T07:52:52.807Z,15.20
2023-04-02T07:55:28.383Z,13.30
2023-04-02T07:57:58.432Z,14.00
2023-04-02T08:00:27.077Z,16.30
2023-04-02T08:03:14.953Z,13.50
2023-04-02T08:05:43.378Z,16.80
2023-04-02T08:08:11.332Z,17.20
2023-04-02T08:10:39.327Z,14.00
2023-04-02T08:13:09.826Z,15.30
2023-04-02T08:15:38.815Z,14.20
2023-04-02T08:18:06.845Z,14.50
2023-04-02T08:20:35.705Z,15.60
2023-04-02T08:23:04.318Z,14.90
2023-04-02T08:25:32.398Z,12.50
2023-04-02T08:28:03.858Z,14.30
2023-04-02T08:30:37.406Z,14.50
2023-04-02T08:33:06.695Z,13.40
2023-04-02T08:35:35.120Z,13.40
2023-04-02T08:38:03.378Z,15.30
2023-04-02T08:40:37.706Z,13.80
2023-04-02T08:43:23.121Z,12.50
2023-04-02T08:46:00.810Z,17.00
2023-04-02T08:48:30.154Z,13.40
2023-04-02T08:50:59.098Z,16.10
2023-04-02T08:53:33.474Z,13.40
2023-04-02T08:56:29.353Z,12.10
2023-04-02T08:58:59.759Z,13.00
2023-04-02T09:01:47.418Z,14.90
2023-04-02T09:04:18.963Z,13.20
2023-04-02T09:06:47.591Z,15.30
2023-04-02T09:09:16.108Z,14.10
2023-04-02T09:11:54.658Z,12.70
2023-04-02T09:14:52.151Z,14.10
2023-04-02T09:17:22.203Z,14.80
2023-04-02T09:20:13.097Z,13.60
2023-04-02T09:22:41.905Z,14.30
2023-04-02T09:25:14.365Z,12.40
2023-04-02T09:27:47.100Z,13.70
2023-04-02T09:30:23.886Z,12.30
2023-04-02T09:33:03.300Z,13.10
2023-04-02T09:35:33.234Z,13.90
2023-04-02T09:38:07.741Z,15.90
2023-04-02T09:41:04.678Z,14.40
2023-04-02T09:43:39.218Z,15.00
2023-04-02T09:46:13.047Z,15.40
2023-04-02T09:48:44.630Z,17.20
2023-04-02T09:51:16.560Z,16.00
2023-04-02T09:53:46.724Z,18.20
2023-04-02T09:56:25.661Z,16.30
2023-04-02T09:59:24.640Z,16.50
2023-04-02T10:01:56.074Z,16.30
2023-04-02T10:04:36.098Z,17.50
2023-04-02T10:07:06.530Z,14.70
2023-04-02T10:09:38.149Z,15.40
2023-04-02T10:12:07.670Z,13.40
2023-04-02T10:14:43.456Z,15.70
2023-04-02T10:17:16.154Z,13.90
2023-04-02T10:20:20.205Z,14.30
2023-04-02T10:22:48.300Z,12.00
2023-04-02T10:25:17.161Z,13.80
2023-04-02T10:28:02.234Z,12.20
2023-04-02T10:30:45.183Z,15.20
2023-04-02T10:33:25.294Z,16.50
2023-04-02T10:36:36.872Z,15.30
2023-04-02T10:40:09.028Z,17.40
2023-04-02T10:42:46.464Z,17.60
2023-04-02T10:45:17.320Z,17.00
2023-04-02T10:48:00.981Z,19.30
2023-04-02T10:53:19.420Z,19.10
2023-04-02T10:55:54.123Z,18.60
2023-04-02T10:58:24.922Z,18.40
2023-04-02T11:01:03.639Z,21.00
2023-04-02T11:03:37.597Z,19.70
2023-04-02T11:06:21.464Z,21.40
2023-04-02T11:08:52.703Z,20.10
2023-04-02T11:11:22.777Z,20.50
2023-04-02T11:14:01.635Z,21.80
2023-04-02T11:16:29.761Z,21.90
2023-04-02T11:19:31.324Z,18.70
2023-04-02T11:22:06.469Z,23.60
2023-04-02T11:24:42.327Z,25.40
2023-04-02T11:27:27.902Z,23.30
2023-04-02T11:30:25.844Z,26.30
2023-04-02T11:32:57.111Z,28.40
2023-04-02T11:35:31.844Z,27.90
2023-04-02T11:38:11.891Z,25.50
2023-04-02T11:40:45.200Z,28.70
2023-04-02T11:43:38.404Z,27.90
2023-04-02T11:46:26.588Z,28.40
2023-04-02T11:48:55.375Z,27.10
2023-04-02T11:51:23.744Z,26.80
2023-04-02T11:53:58.464Z,22.30
2023-04-02T11:56:36.402Z,26.20
2023-04-02T11:59:18.325Z,23.50
2023-04-02T12:02:19.085Z,23.40
2023-04-02T12:05:16.898Z,25.80
2023-04-02T12:08:07.670Z,27.70
2023-04-02T12:11:01.483Z,32.00
2023-04-02T12:13:41.731Z,38.50
2023-04-02T12:16:13.183Z,25.90
2023-04-02T12:18:51.373Z,28.60
2023-04-02T12:21:22.149Z,27.30
2023-04-02T12:23:52.145Z,31.80
2023-04-02T12:26:26.671Z,30.80
2023-04-02T12:28:56.320Z,27.40
2023-04-02T12:31:25.383Z,26.70
2023-04-02T12:33:53.600Z,24.30
2023-04-02T12:36:23.919Z,27.40
2023-04-02T12:38:56.578Z,26.10
2023-04-02T12:41:30.464Z,26.00
2023-04-02T12:44:21.377Z,26.70
2023-04-02T12:46:49.612Z,31.60
2023-04-02T12:49:37.058Z,29.80
2023-04-02T12:52:10.885Z,28.20
2023-04-02T12:57:21.175Z,22.40
2023-04-02T12:59:49.618Z,18.10
2023-04-02T13:02:22.688Z,16.90
2023-04-02T13:04:55.272Z,21.10
2023-04-02T13:07:27.146Z,27.90
2023-04-02T13:09:59.733Z,26.10
2023-04-02T13:12:40.382Z,27.90
2023-04-02T13:15:23.426Z,21.40
2023-04-02T13:18:21.512Z,27.60
2023-04-02T13:20:59.549Z,19.10
2023-04-02T13:23:27.599Z,21.60
2023-04-02T13:26:00.268Z,17.00
2023-04-02T13:28:31.184Z,16.80
2023-04-02T13:31:00.704Z,17.50
2023-04-02T13:33:31.124Z,13.30
2023-04-02T13:35:59.582Z,9.00
2023-04-02T13:38:28.580Z,11.20
2023-04-02T13:40:56.830Z,14.30
2023-04-02T13:43:24.970Z,11.60
2023-04-02T13:45:53.450Z,9.10
2023-04-02T13:48:28.760Z,11.20
2023-04-02T13:50:57.297Z,11.70
2023-04-02T13:53:29.506Z,11.90
2023-04-02T13:55:57.650Z,10.70
2023-04-02T13:58:25.767Z,10.20
2023-04-02T14:00:58.189Z,11.50
2023-04-02T14:03:27.310Z,11.40
2023-04-02T14:06:22.452Z,11.60
2023-04-02T14:09:18.323Z,12.50
2023-04-02T14:12:32.155Z,14.20
2023-04-02T14:15:12.636Z,14.90
2023-04-02T14:17:59.619Z,16.60
2023-04-02T14:20:44.830Z,17.80
2023-04-02T14:23:35.201Z,18.90
2023-04-02T14:26:31.436Z,20.60
2023-04-02T14:29:21.476Z,20.70
2023-04-02T14:31:59.418Z,18.00
2023-04-02T14:34:39.801Z,17.90
2023-04-02T14:37:13.589Z,19.20
2023-04-02T14:42:50.971Z,23.20
2023-04-02T14:45:36.971Z,23.00
2023-04-02T14:48:24.914Z,24.40
2023-04-02T14:51:02.379Z,24.10
2023-04-02T14:53:48.210Z,23.10
2023-04-02T14:56:16.956Z,27.80
2023-04-02T14:58:49.393Z,25.30
2023-04-02T15:01:33.768Z,26.10
2023-04-02T15:04:23.442Z,24.30
2023-04-02T15:06:53.222Z,20.20
2023-04-02T15:09:57.457Z,22.60
2023-04-02T15:12:29.027Z,24.40
2023-04-02T15:15:45.698Z,24.50
2023-04-02T15:18:16.377Z,25.60
2023-04-02T15:20:47.482Z,24.30
2023-04-02T15:23:36.944Z,21.10
2023-04-02T15:26:21.721Z,26.60
2023-04-02T15:29:25.889Z,28.10
2023-04-02T15:32:35.069Z,26.80
2023-04-02T15:35:10.978Z,24.50
2023-04-02T15:37:49.917Z,25.20
2023-04-02T15:40:38.684Z,26.00
2023-04-02T15:43:11.282Z,25.40
2023-04-02T15:46:07.720Z,28.50
2023-04-02T15:49:01.365Z,32.10
2023-04-02T15:51:45.444Z,32.50
2023-04-02T15:54:27.035Z,29.90
2023-04-02T15:57:02.434Z,33.90
2023-04-02T15:59:51.962Z,29.90
2023-04-02T16:02:29.104Z,38.80
2023-04-02T16:05:05.693Z,38.80
2023-04-02T16:07:46.961Z,32.50
2023-04-02T16:10:37.966Z,32.90
2023-04-02T16:13:28.439Z,31.80
2023-04-02T16:16:07.014Z,36.00
2023-04-02T16:19:26.219Z,31.00
2023-04-02T16:21:58.912Z,34.40
2023-04-02T16:24:27.206Z,34.20
2023-04-02T16:26:55.433Z,33.10
2023-04-02T16:30:11.499Z,33.40
2023-04-02T16:33:17.049Z,26.00
2023-04-02T16:36:25.721Z,31.50
2023-04-02T16:38:58.912Z,34.80
2023-04-02T16:41:45.772Z,34.70
2023-04-02T16:44:24.790Z,30.90
2023-04-02T16:47:02.022Z,32.60
2023-04-02T16:49:44.472Z,32.50
2023-04-02T16:52:38.408Z,30.60
2023-04-02T16:55:13.029Z,34.40
2023-04-02T16:57:57.560Z,35.10
2023-04-02T17:00:40.800Z,42.10
2023-04-02T17:03:37.385Z,33.70
2023-04-02T17:06:15.519Z,35.60
2023-04-02T17:08:47.326Z,30.60
2023-04-02T17:11:23.814Z,30.20
2023-04-02T17:14:06.050Z,35.80
2023-04-02T17:16:44.992Z,35.50
2023-04-02T17:19:15.690Z,36.10
2023-04-02T17:21:47.222Z,35.20
2023-04-02T17:24:26.030Z,33.10
2023-04-02T17:27:00.764Z,37.70
2023-04-02T17:29:39.570Z,34.10
2023-04-02T17:32:15.129Z,34.70
2023-04-02T17:34:43.407Z,31.10
2023-04-02T17:37:29.858Z,33.20
2023-04-02T17:40:08.515Z,40.20
2023-04-02T17:42:54.729Z,32.60
2023-04-02T17:45:44.756Z,38.00
2023-04-02T17:48:22.216Z,34.20
2023-04-02T17:50:55.746Z,31.90
2023-04-02T17:53:43.067Z,31.70
2023-04-02T17:56:29.007Z,30.90
2023-04-02T17:59:14.958Z,33.90
2023-04-02T18:01:49.654Z,26.60
2023-04-02T18:04:41.572Z,28.20
2023-04-02T18:07:34.598Z,29.10
2023-04-02T18:10:27.915Z,28.60
2023-04-02T18:13:02.098Z,34.70
2023-04-02T18:15:36.248Z,28.30
2023-04-02T18:18:14.415Z,25.90
2023-04-02T18:20:57.157Z,28.00
2023-04-02T18:23:45.482Z,21.90
2023-04-02T18:26:19.701Z,22.80
2023-04-02T18:29:16.732Z,23.60
2023-04-02T18:32:22.600Z,22.50
2023-04-02T18:35:13.204Z,23.00
2023-04-02T18:38:04.663Z,23.30
2023-04-02T18:40:54.575Z,24.50
2023-04-02T18:43:50.168Z,19.90
2023-04-02T18:46:47.028Z,22.60
2023-04-02T18:49:39.073Z,21.50
2023-04-02T18:52:15.326Z,19.40
2023-04-02T18:54:48.097Z,17.90
2023-04-02T18:57:20.090Z,19.90
2023-04-02T18:59:53.084Z,17.20
2023-04-02T19:02:39.119Z,19.50
2023-04-02T19:05:35.666Z,18.30
2023-04-02T19:08:16.533Z,17.70
2023-04-02T19:10:46.375Z,15.80
2023-04-02T19:13:22.672Z,18.70
2023-04-02T19:16:01.696Z,19.10
2023-04-02T19:18:51.612Z,17.10
2023-04-02T19:21:40.519Z,19.60
2023-04-02T19:24:39.262Z,15.10
2023-04-02T19:27:19.937Z,17.70
2023-04-02T19:30:09.981Z,13.80
2023-04-02T19:33:06.615Z,12.40
2023-04-02T19:35:43.536Z,12.70
2023-04-02T19:38:31.240Z,14.40
2023-04-02T19:41:18.891Z,16.70
2023-04-02T19:43:47.117Z,15.30
2023-04-02T19:46:15.558Z,17.90
2023-04-02T19:49:00.357Z,21.70
2023-04-02T19:51:28.670Z,15.70
2023-04-02T19:53:56.694Z,14.40
2023-04-02T19:56:25.083Z,13.40
2023-04-02T19:58:53.158Z,16.70
2023-04-02T20:01:21.402Z,12.90
2023-04-02T20:03:49.604Z,13.50
2023-04-02T20:06:21.470Z,17.00
2023-04-02T20:08:50.442Z,13.10
2023-04-02T20:11:18.443Z,13.10
2023-04-02T20:13:53.931Z,14.70
2023-04-02T20:16:22.926Z,11.90
2023-04-02T20:18:50.975Z,14.60
2023-04-02T20:21:19.546Z,13.80
2023-04-02T20:23:47.753Z,15.80
2023-04-02T20:26:16.201Z,13.80
2023-04-02T20:28:45.564Z,14.40
2023-04-02T20:31:15.521Z,17.00
2023-04-02T20:33:44.739Z,15.50
2023-04-02T20:36:14.482Z,15.00
2023-04-02T20:38:42.331Z,18.00
2023-04-02T20:41:10.385Z,16.40
2023-04-02T20:43:42.941Z,15.50
2023-04-02T20:46:12.234Z,16.50
2023-04-02T20:48:40.819Z,13.30
2023-04-02T20:51:09.902Z,13.90
2023-04-02T20:53:38.516Z,15.10
2023-04-02T20:56:08.824Z,13.00
2023-04-02T20:58:38.197Z,14.60
2023-04-02T21:01:22.924Z,12.50
2023-04-02T21:04:02.371Z,13.00
2023-04-02T21:06:32.700Z,11.70
2023-04-02T21:09:03.187Z,13.90
2023-04-02T21:11:33.060Z,14.80
2023-04-02T21:14:01.193Z,18.10
2023-04-02T21:16:31.380Z,13.00
2023-04-02T21:19:01.440Z,14.40
2023-04-02T21:21:31.713Z,17.10
2023-04-02T21:24:02.161Z,16.60
2023-04-02T21:26:33.466Z,16.20
2023-04-02T21:29:05.394Z,13.50
2023-04-02T21:31:36.128Z,13.60
2023-04-02T21:34:04.990Z,17.20
2023-04-02T21:36:34.924Z,19.00
2023-04-02T21:39:07.478Z,14.90
2023-04-02T21:41:39.043Z,16.50
2023-04-02T21:44:08.453Z,13.80
2023-04-02T21:46:38.737Z,16.60
2023-04-02T21:49:10.458Z,13.70
2023-04-02T21:51:39.322Z,17.90
2023-04-02T21:54:09.189Z,14.10
2023-04-02T21:56:41.602Z,14.00
2023-04-02T21:59:10.794Z,13.20
2023-04-02T22:01:43.748Z,16.80
2023-04-02T22:04:21.607Z,14.90
2023-04-02T22:06:50.267Z,16.30
2023-04-02T22:09:20.356Z,14.70
2023-04-02T22:11:51.012Z,13.90
2023-04-02T22:14:19.055Z,13.60
2023-04-02T22:16:47.354Z,15.20
2023-04-02T22:19:21.444Z,16.30
2023-04-02T22:21:49.877Z,15.90
2023-04-02T22:24:22.652Z,16.90
2023-04-02T22:26:51.077Z,15.30
2023-04-02T22:29:19.300Z,13.70
2023-04-02T22:31:47.678Z,14.40
2023-04-02T22:34:16.029Z,15.80
2023-04-02T22:36:44.111Z,15.50
2023-04-02T22:39:13.395Z,14.40
2023-04-02T22:41:41.516Z,16.10
2023-04-02T22:44:12.275Z,17.10
2023-04-02T22:46:40.693Z,14.50
2023-04-02T22:49:11.157Z,16.10
2023-04-02T22:51:40.082Z,19.80
2023-04-02T22:54:08.549Z,17.20
2023-04-02T22:56:37.730Z,18.20
2023-04-02T22:59:06.958Z,17.10
2023-04-02T23:01:35.773Z,17.90
2023-04-02T23:04:05.333Z,17.80
2023-04-02T23:06:34.937Z,23.10
2023-04-02T23:09:04.218Z,18.30
2023-04-02T23:11:41.398Z,22.40
2023-04-02T23:14:09.559Z,23.50
2023-04-02T23:16:37.568Z,19.80
2023-04-02T23:19:07.647Z,23.30
2023-04-02T23:21:38.014Z,23.60
2023-04-02T23:24:12.043Z,20.80
2023-04-02T23:26:40.474Z,21.00
2023-04-02T23:29:09.541Z,19.30
2023-04-02T23:31:38.031Z,20.50
2023-04-02T23:34:07.697Z,21.10
2023-04-02T23:36:35.996Z,20.30
2023-04-02T23:39:09.522Z,22.80
2023-04-02T23:44:06.568Z,23.30
2023-04-02T23:46:35.664Z,22.80
2023-04-02T23:49:04.057Z,23.60
2023-04-02T23:51:33.208Z,23.20
2023-04-02T23:54:01.568Z,22.90
2023-04-02T23:56:31.826Z,21.20
2023-04-02T23:58:59.981Z,22.60
